Ritter, Iowa
Current Conditions -  °F | °C
As of 4:15 AM on Thursday 29 Jan 2015 (Local Time) from KSHL Reporting Station
Overcast Overcast  
Wind Chill: 19°   Ceiling: 1400
Heat Index: 32°   Visibility: 10mi
Dew Point: 32°   Wind: 24mph
Humidity: 100%   Direction: 320°NW
Pressure: 30.09"   Gusts: 35mph
Location:  43.1723°N, 95.8037°W
Report Text: KSHL 291015Z AUTO 32021G30KT 10SM BKN014 OVC019 00/M00 A3009 RMK AO2
Loading
Personal Weather Stations






























Interactive Weather Map New forecast layout! Learn more

10-Day Weather Forecast

Advertisements
Track Severe Weather on mobile